Freedom — WDE8526 — position and weather

sailwx.info

Track history (hours):
 
Tides and Currents Weather Stations Pressure Air Temp Water Temp Dewpoint Dewpoint Depression Visibility Wind Speed Wind Dir Waves Ship Positions

Freedom

Owner: Nebel Mr, Christopher J, Guilford, CT. More information available from US FCC via Universal Licensing System and Coast Guard Vessel Documentation Center.

Last reported at 2017-May-22 09:54 UTC. Time now 2017-May-24 02:24 UTC.
Position N 26°26' W 081°58'.

Length 23 m.

Type: Pleasure craft. MMSI: 367406610.

Date/timePositionNaut miles runAvg speedWind from/ knotsBaromVisibWave heightAir tempDewpointWater temp
2017-May-22 09:54N 26°26' W 081°58'1 2.7
2017-May-22 09:24N 26°27' W 081°57'0 0.0
2017-May-22 09:00N 26°27' W 081°57'0 0.0
2017-May-22 08:24N 26°27' W 081°57'0 0.0
2017-May-22 07:57N 26°27' W 081°57'0 0.0
2017-May-22 07:30N 26°27' W 081°57'0 0.0
2017-May-22 07:00N 26°27' W 081°57'0 0.0
2017-May-22 06:27N 26°27' W 081°57'0 0.0
2017-May-22 06:00N 26°27' W 081°57'0 0.0
2017-May-22 05:30N 26°27' W 081°57'0 0.0
2017-May-21 23:42N 26°27' W 081°57'0 0.0
2017-May-21 23:30N 26°27' W 081°57'0 0.0
2017-May-21 23:00N 26°27' W 081°57'0 0.0
2017-May-21 22:30N 26°27' W 081°57'0 0.0
2017-May-21 21:54N 26°27' W 081°57'0 0.0
2017-May-21 21:30N 26°27' W 081°57'0 0.0
2017-May-21 21:00N 26°27' W 081°57'0 0.0
2017-May-21 20:30N 26°27' W 081°57'3 5.9
2017-May-21 20:00N 26°28' W 082°01'3 7.0
2017-May-21 19:31N 26°32' W 081°59'4 8.3
2017-May-21 19:00N 26°34' W 081°55'4 8.8
2017-May-21 18:30N 26°38' W 081°53'4 7.9
2017-May-21 18:00N 26°41' W 081°50'95 3.0
2017-May-20 10:46N 26°60' W 080°05'2 8.1
2017-May-20 10:30N 26°58' W 080°05'3 6.5
2017-May-20 10:00N 26°54' W 080°05'  
Track history (hours):
 
Tides and Currents Weather Stations Pressure Air Temp Water Temp Dewpoint Dewpoint Depression Visibility Wind Speed Wind Dir Waves Ship Positions

Freedom

Owner: Nebel Mr, Christopher J, Guilford, CT. More information available from US FCC via Universal Licensing System and Coast Guard Vessel Documentation Center.

Last reported at 2017-May-22 09:54 UTC. Time now 2017-May-24 02:24 UTC.
Position N 26°26' W 081°58'.

Length 23 m.

Type: Pleasure craft. MMSI: 367406610.

Date/timePositionNaut miles runAvg speedWind from/ knotsBaromVisibWave heightAir tempDewpointWater temp
2017-May-22 09:54N 26°26' W 081°58'1 2.7
2017-May-22 09:24N 26°27' W 081°57'0 0.0
2017-May-22 09:00N 26°27' W 081°57'0 0.0
2017-May-22 08:24N 26°27' W 081°57'0 0.0
2017-May-22 07:57N 26°27' W 081°57'0 0.0
2017-May-22 07:30N 26°27' W 081°57'0 0.0
2017-May-22 07:00N 26°27' W 081°57'0 0.0
2017-May-22 06:27N 26°27' W 081°57'0 0.0
2017-May-22 06:00N 26°27' W 081°57'0 0.0
2017-May-22 05:30N 26°27' W 081°57'0 0.0
2017-May-21 23:42N 26°27' W 081°57'0 0.0
2017-May-21 23:30N 26°27' W 081°57'0 0.0
2017-May-21 23:00N 26°27' W 081°57'0 0.0
2017-May-21 22:30N 26°27' W 081°57'0 0.0
2017-May-21 21:54N 26°27' W 081°57'0 0.0
2017-May-21 21:30N 26°27' W 081°57'0 0.0
2017-May-21 21:00N 26°27' W 081°57'0 0.0
2017-May-21 20:30N 26°27' W 081°57'3 5.9
2017-May-21 20:00N 26°28' W 082°01'3 7.0
2017-May-21 19:31N 26°32' W 081°59'4 8.3
2017-May-21 19:00N 26°34' W 081°55'4 8.8
2017-May-21 18:30N 26°38' W 081°53'4 7.9
2017-May-21 18:00N 26°41' W 081°50'95 3.0
2017-May-20 10:46N 26°60' W 080°05'2 8.1
2017-May-20 10:30N 26°58' W 080°05'3 6.5
2017-May-20 10:00N 26°54' W 080°05'  

Dump ship's entire track history